Time,TemperatureF,DewpointF,PressureIn,WindDirection,WindDirectionDegrees,WindSpeedMPH,WindSpeedGustMPH,Humidity,HourlyPrecipIn,Conditions,Clouds,dailyrainin,SoftwareType,DateUTC
2013-01-30 00:00:00,34.7,34.2,29.46,NNE,27,0.0,0.0,98,0.10,,---,0.00,VWS V14.01,2013-01-30 05:00:00,
2013-01-30 00:01:00,34.7,34.2,29.46,NNE,33,0.0,0.0,98,0.11,,---,0.01,VWS V14.01,2013-01-30 05:01:00,
2013-01-30 00:03:00,34.7,34.2,29.46,North,11,0.0,0.0,98,0.11,,---,0.01,VWS V14.01,2013-01-30 05:03:00,
2013-01-30 00:08:00,34.6,34.1,29.46,NE,45,0.0,0.0,98,0.12,,---,0.02,VWS V14.01,2013-01-30 05:08:00,
2013-01-30 00:13:00,34.6,34.1,29.46,NNE,20,0.0,0.0,98,0.10,,---,0.02,VWS V14.01,2013-01-30 05:13:00,
2013-01-30 00:18:00,34.6,34.1,29.46,North,5,0.0,0.0,98,0.11,,---,0.03,VWS V14.01,2013-01-30 05:18:00,
2013-01-30 00:23:00,34.6,34.1,29.45,NNE,13,0.0,0.0,98,0.11,,---,0.04,VWS V14.01,2013-01-30 05:23:00,
2013-01-30 00:28:00,34.4,33.9,29.45,North,10,0.0,0.0,98,0.12,,---,0.05,VWS V14.01,2013-01-30 05:28:00,
2013-01-30 00:33:00,34.4,33.9,29.45,North,9,0.0,0.0,98,0.11,,---,0.06,VWS V14.01,2013-01-30 05:33:00,
2013-01-30 00:38:00,34.4,33.9,29.46,North,350,0.0,0.0,98,0.12,,---,0.07,VWS V14.01,2013-01-30 05:38:00,
2013-01-30 00:43:00,34.3,33.8,29.45,NNE,22,0.0,0.0,98,0.10,,---,0.07,VWS V14.01,2013-01-30 05:43:00,
2013-01-30 00:48:00,34.3,33.8,29.45,NNE,15,0.0,0.0,98,0.11,,---,0.08,VWS V14.01,2013-01-30 05:48:00,
2013-01-30 00:53:00,34.3,33.8,29.46,NNE,14,0.0,0.0,98,0.10,,---,0.09,VWS V14.01,2013-01-30 05:53:00,
2013-01-30 00:58:00,34.3,33.8,29.45,NNE,25,0.0,0.0,98,0.11,,---,0.10,VWS V14.01,2013-01-30 05:58:00,
2013-01-30 01:03:00,34.3,33.8,29.46,NNE,23,0.0,0.0,98,0.10,,---,0.10,VWS V14.01,2013-01-30 06:03:00,
2013-01-30 01:08:00,34.3,33.8,29.45,NNE,20,0.0,0.0,98,0.11,,---,0.11,VWS V14.01,2013-01-30 06:08:00,
2013-01-30 01:13:00,34.3,33.8,29.45,NNE,32,0.0,0.0,98,0.10,,---,0.12,VWS V14.01,2013-01-30 06:13:00,
2013-01-30 01:18:00,34.1,33.6,29.46,NNE,30,0.0,0.0,98,0.10,,---,0.12,VWS V14.01,2013-01-30 06:18:00,
2013-01-30 01:23:00,34.1,33.6,29.46,NNE,19,0.0,0.0,98,0.10,,---,0.13,VWS V14.01,2013-01-30 06:23:00,
2013-01-30 01:28:00,34.0,33.5,29.46,North,5,0.0,0.0,98,0.11,,---,0.14,VWS V14.01,2013-01-30 06:28:00,
2013-01-30 01:33:00,33.8,33.3,29.47,North,9,0.0,0.0,98,0.09,,---,0.14,VWS V14.01,2013-01-30 06:33:00,
2013-01-30 01:38:00,33.8,33.3,29.46,North,5,0.0,0.0,98,0.10,,---,0.15,VWS V14.01,2013-01-30 06:38:00,
2013-01-30 01:43:00,33.8,33.3,29.47,North,5,0.0,0.0,98,0.08,,---,0.15,VWS V14.01,2013-01-30 06:43:00,
2013-01-30 01:48:00,33.8,33.3,29.47,North,360,0.0,0.0,98,0.09,,---,0.16,VWS V14.01,2013-01-30 06:48:00,
2013-01-30 01:53:00,33.7,33.2,29.47,NNE,17,0.0,0.0,98,0.09,,---,0.17,VWS V14.01,2013-01-30 06:53:00,
2013-01-30 01:59:00,33.7,33.2,29.47,North,5,0.0,0.0,98,0.09,,---,0.17,VWS V14.01,2013-01-30 06:59:00,
2013-01-30 02:04:00,33.5,33.0,29.47,North,360,0.0,0.0,98,0.08,,---,0.18,VWS V14.01,2013-01-30 07:04:00,
2013-01-30 02:08:00,33.5,33.0,29.47,North,10,0.0,0.0,98,0.08,,---,0.18,VWS V14.01,2013-01-30 07:08:00,
2013-01-30 02:13:00,33.4,32.9,29.46,NNE,26,0.0,0.0,98,0.08,,---,0.19,VWS V14.01,2013-01-30 07:13:00,
2013-01-30 02:19:00,33.4,32.9,29.45,NNE,27,0.0,0.0,98,0.08,,---,0.19,VWS V14.01,2013-01-30 07:19:00,
2013-01-30 02:24:00,33.4,32.9,29.45,NNE,29,0.0,0.0,98,0.08,,---,0.20,VWS V14.01,2013-01-30 07:24:00,
2013-01-30 02:29:00,33.2,32.7,29.45,NNE,32,0.0,0.0,98,0.08,,---,0.20,VWS V14.01,2013-01-30 07:29:00,
2013-01-30 02:34:00,33.2,32.7,29.44,NNE,19,0.0,0.0,98,0.06,,---,0.20,VWS V14.01,2013-01-30 07:34:00,
2013-01-30 02:39:00,33.2,32.7,29.44,NNE,17,0.0,0.0,98,0.07,,---,0.21,VWS V14.01,2013-01-30 07:39:00,
2013-01-30 02:44:00,33.2,32.7,29.43,NE,38,0.0,0.0,98,0.06,,---,0.21,VWS V14.01,2013-01-30 07:44:00,
2013-01-30 02:49:00,33.2,32.7,29.44,NNE,30,0.0,0.0,98,0.07,,---,0.22,VWS V14.01,2013-01-30 07:49:00,
2013-01-30 02:54:00,33.2,32.7,29.44,North,9,0.0,0.0,98,0.06,,---,0.22,VWS V14.01,2013-01-30 07:54:00,
2013-01-30 02:59:00,33.2,32.7,29.43,NNE,30,0.0,0.0,98,0.07,,---,0.23,VWS V14.01,2013-01-30 07:59:00,
2013-01-30 03:04:00,33.2,32.7,29.43,NE,38,0.0,0.0,98,0.06,,---,0.23,VWS V14.01,2013-01-30 08:04:00,
2013-01-30 03:09:00,33.2,32.7,29.43,NE,40,0.0,0.0,98,0.07,,---,0.24,VWS V14.01,2013-01-30 08:09:00,
2013-01-30 03:14:00,33.2,32.7,29.43,NNE,26,0.0,0.0,98,0.06,,---,0.24,VWS V14.01,2013-01-30 08:14:00,
2013-01-30 03:19:00,33.1,32.6,29.43,NNE,15,0.0,0.0,98,0.06,,---,0.24,VWS V14.01,2013-01-30 08:19:00,
2013-01-30 03:24:00,33.1,32.6,29.43,North,9,0.0,0.0,98,0.06,,---,0.25,VWS V14.01,2013-01-30 08:24:00,
2013-01-30 03:29:00,33.1,32.6,29.42,NE,38,0.0,0.0,98,0.06,,---,0.25,VWS V14.01,2013-01-30 08:29:00,
2013-01-30 03:34:00,33.1,32.6,29.42,North,360,0.0,0.0,98,0.05,,---,0.25,VWS V14.01,2013-01-30 08:34:00,
2013-01-30 03:39:00,33.1,32.6,29.42,North,5,0.0,0.0,98,0.06,,---,0.26,VWS V14.01,2013-01-30 08:39:00,
2013-01-30 03:44:00,33.1,32.6,29.42,North,9,0.0,0.0,98,0.05,,---,0.26,VWS V14.01,2013-01-30 08:44:00,
2013-01-30 03:49:00,33.1,32.6,29.42,NNE,26,0.0,0.0,98,0.05,,---,0.26,VWS V14.01,2013-01-30 08:49:00,
2013-01-30 03:54:00,33.1,32.6,29.42,NNE,32,0.0,0.0,98,0.04,,---,0.26,VWS V14.01,2013-01-30 08:54:00,
2013-01-30 03:59:00,32.9,32.4,29.42,North,11,0.0,0.0,98,0.05,,---,0.27,VWS V14.01,2013-01-30 08:59:00,
2013-01-30 04:04:00,32.9,32.4,29.42,NE,43,0.0,0.0,98,0.04,,---,0.27,VWS V14.01,2013-01-30 09:04:00,
2013-01-30 04:09:00,32.9,32.4,29.43,North,350,0.0,0.0,98,0.04,,---,0.27,VWS V14.01,2013-01-30 09:09:00,
2013-01-30 04:14:00,32.8,32.3,29.41,NNE,26,0.0,0.0,98,0.03,,---,0.27,VWS V14.01,2013-01-30 09:14:00,
2013-01-30 04:19:00,32.8,32.3,29.42,NE,36,0.0,0.0,98,0.04,,---,0.28,VWS V14.01,2013-01-30 09:19:00,
2013-01-30 04:24:00,32.8,32.3,29.42,North,9,0.0,0.0,98,0.03,,---,0.28,VWS V14.01,2013-01-30 09:24:00,
2013-01-30 04:29:00,32.8,32.3,29.41,NNE,32,0.0,0.0,98,0.03,,---,0.28,VWS V14.01,2013-01-30 09:29:00,
2013-01-30 04:34:00,32.8,32.3,29.41,NNE,17,0.0,0.0,98,0.04,,---,0.29,VWS V14.01,2013-01-30 09:34:00,
2013-01-30 04:39:00,32.8,32.3,29.41,North,360,0.0,0.0,98,0.04,,---,0.29,VWS V14.01,2013-01-30 09:39:00,
2013-01-30 04:44:00,32.8,32.3,29.42,NNE,27,0.0,0.0,98,0.03,,---,0.29,VWS V14.01,2013-01-30 09:44:00,
2013-01-30 04:49:00,32.8,32.3,29.42,NE,34,0.0,0.0,98,0.04,,---,0.30,VWS V14.01,2013-01-30 09:49:00,
2013-01-30 04:54:00,32.8,32.3,29.41,NNE,15,0.0,0.0,98,0.04,,---,0.30,VWS V14.01,2013-01-30 09:54:00,
2013-01-30 04:59:00,32.8,32.3,29.42,North,360,0.0,0.0,98,0.05,,---,0.31,VWS V14.01,2013-01-30 09:59:00,
2013-01-30 05:04:00,32.8,32.3,29.41,NNE,18,0.0,0.0,98,0.04,,---,0.31,VWS V14.01,2013-01-30 10:04:00,
2013-01-30 05:09:00,32.8,32.3,29.41,NE,40,0.0,0.0,98,0.04,,---,0.31,VWS V14.01,2013-01-30 10:09:00,
2013-01-30 05:14:00,32.8,32.3,29.40,NE,46,0.0,0.0,98,0.04,,---,0.31,VWS V14.01,2013-01-30 10:14:00,
2013-01-30 05:19:00,32.9,32.4,29.40,NE,35,0.0,0.0,98,0.05,,---,0.32,VWS V14.01,2013-01-30 10:19:00,
2013-01-30 05:24:00,32.9,32.4,29.40,North,9,0.0,0.0,98,0.04,,---,0.32,VWS V14.01,2013-01-30 10:24:00,
2013-01-30 05:29:00,32.9,32.4,29.38,NE,42,0.0,0.0,98,0.04,,---,0.32,VWS V14.01,2013-01-30 10:29:00,
2013-01-30 05:34:00,32.9,32.4,29.37,NNE,16,0.0,0.0,98,0.04,,---,0.32,VWS V14.01,2013-01-30 10:34:00,
2013-01-30 05:39:00,32.9,32.4,29.39,NNW,348,0.0,0.0,98,0.04,,---,0.32,VWS V14.01,2013-01-30 10:39:00,
2013-01-30 05:44:00,32.9,32.4,29.39,North,360,0.0,0.0,98,0.03,,---,0.32,VWS V14.01,2013-01-30 10:44:00,
2013-01-30 05:49:00,32.9,32.4,29.39,NNE,21,0.0,0.0,98,0.03,,---,0.32,VWS V14.01,2013-01-30 10:49:00,
2013-01-30 05:54:00,32.9,32.4,29.40,North,355,0.0,0.0,98,0.02,,---,0.32,VWS V14.01,2013-01-30 10:54:00,
2013-01-30 05:59:00,32.9,32.4,29.41,NNE,22,0.0,0.0,98,0.02,,---,0.32,VWS V14.01,2013-01-30 10:59:00,
2013-01-30 06:04:00,32.9,32.4,29.40,North,5,0.0,0.0,98,0.01,,---,0.32,VWS V14.01,2013-01-30 11:04:00,
2013-01-30 06:09:00,32.9,32.4,29.41,North,355,0.0,0.0,98,0.01,,---,0.32,VWS V14.01,2013-01-30 11:09:00,
2013-01-30 06:14:00,32.9,32.4,29.40,NNE,12,0.0,0.0,98,0.01,,---,0.32,VWS V14.01,2013-01-30 11:14:00,
2013-01-30 06:19:00,32.9,32.4,29.39,NE,41,0.0,0.0,98,0.01,,---,0.32,VWS V14.01,2013-01-30 11:19:00,
2013-01-30 06:24:00,32.9,32.4,29.39,North,9,0.0,0.0,98,0.00,,---,0.32,VWS V14.01,2013-01-30 11:24:00,
2013-01-30 06:29:00,32.8,32.3,29.39,NNE,26,0.0,0.0,98,0.00,,---,0.32,VWS V14.01,2013-01-30 11:29:00,
2013-01-30 06:34:00,32.8,32.3,29.39,NNE,14,0.0,0.0,98,0.00,,---,0.32,VWS V14.01,2013-01-30 11:34:00,
2013-01-30 06:39:00,32.8,32.3,29.40,North,360,0.0,0.0,98,0.00,,---,0.32,VWS V14.01,2013-01-30 11:39:00,
2013-01-30 06:44:00,32.8,32.3,29.40,North,5,0.0,0.0,98,0.00,,---,0.32,VWS V14.01,2013-01-30 11:44:00,
2013-01-30 06:49:00,32.8,32.3,29.40,North,9,0.0,0.0,98,0.00,,---,0.32,VWS V14.01,2013-01-30 11:49:00,
2013-01-30 06:54:00,32.8,32.3,29.40,North,9,0.0,0.0,98,0.00,,---,0.32,VWS V14.01,2013-01-30 11:54:00,
2013-01-30 06:59:00,32.8,32.3,29.39,NNE,20,0.0,0.0,98,0.00,,---,0.32,VWS V14.01,2013-01-30 11:59:00,
2013-01-30 07:05:00,32.8,32.0,29.37,NNE,13,0.0,0.0,97,0.00,,---,0.32,VWS V14.01,2013-01-30 12:05:00,
2013-01-30 07:10:00,32.7,31.9,29.36,NE,34,0.0,0.0,97,0.00,,---,0.32,VWS V14.01,2013-01-30 12:10:00,
2013-01-30 07:15:00,32.7,31.9,29.35,NNE,17,0.0,0.0,97,0.00,,---,0.32,VWS V14.01,2013-01-30 12:15:00,
2013-01-30 07:20:00,32.7,31.9,29.33,NNE,28,0.0,0.0,97,0.00,,---,0.32,VWS V14.01,2013-01-30 12:20:00,
2013-01-30 07:25:00,32.7,31.9,29.33,NNE,29,0.0,0.0,97,0.00,,---,0.32,VWS V14.01,2013-01-30 12:25:00,
2013-01-30 07:30:00,32.7,31.9,29.35,North,360,0.0,0.0,97,0.00,,---,0.32,VWS V14.01,2013-01-30 12:30:00,
2013-01-30 07:35:00,32.8,32.0,29.37,NNE,24,0.0,0.0,97,0.00,,---,0.32,VWS V14.01,2013-01-30 12:35:00,
2013-01-30 07:40:00,32.8,32.0,29.38,North,355,0.0,0.0,97,0.00,,---,0.32,VWS V14.01,2013-01-30 12:40:00,
2013-01-30 07:45:00,32.8,32.0,29.39,NNE,28,0.0,0.0,97,0.00,,---,0.32,VWS V14.01,2013-01-30 12:45:00,
2013-01-30 07:50:00,32.8,32.0,29.40,North,5,0.0,0.0,97,0.00,,---,0.32,VWS V14.01,2013-01-30 12:50:00,
2013-01-30 07:55:00,32.8,32.0,29.40,NNE,19,0.0,0.0,97,0.00,,---,0.32,VWS V14.01,2013-01-30 12:55:00,
2013-01-30 08:00:00,32.8,32.0,29.39,NNE,17,0.0,0.0,97,0.00,,---,0.32,VWS V14.01,2013-01-30 13:00:00,
2013-01-30 08:05:00,32.8,32.0,29.37,NNE,28,0.0,0.0,97,0.00,,---,0.32,VWS V14.01,2013-01-30 13:05:00,
2013-01-30 08:10:00,32.7,31.9,29.38,NNE,31,0.0,0.0,97,0.00,,---,0.32,VWS V14.01,2013-01-30 13:10:00,
2013-01-30 08:15:00,32.7,31.9,29.37,NNE,24,0.0,0.0,97,0.01,,---,0.33,VWS V14.01,2013-01-30 13:15:00,
2013-01-30 08:20:00,32.7,31.9,29.36,NNE,27,0.0,0.0,97,0.01,,---,0.33,VWS V14.01,2013-01-30 13:20:00,
2013-01-30 08:25:00,32.5,31.7,29.37,NNE,29,0.0,0.0,97,0.01,,---,0.33,VWS V14.01,2013-01-30 13:25:00,
2013-01-30 08:30:00,32.5,31.7,29.36,NNE,22,0.0,0.0,97,0.01,,---,0.33,VWS V14.01,2013-01-30 13:30:00,
2013-01-30 08:35:00,32.5,31.7,29.38,NNE,28,0.0,0.0,97,0.02,,---,0.34,VWS V14.01,2013-01-30 13:35:00,
2013-01-30 08:40:00,32.5,31.7,29.37,North,5,0.0,0.0,97,0.02,,---,0.34,VWS V14.01,2013-01-30 13:40:00,
2013-01-30 08:45:00,32.5,31.7,29.37,NNE,22,0.0,0.0,97,0.02,,---,0.34,VWS V14.01,2013-01-30 13:45:00,
2013-01-30 08:50:00,32.5,31.7,29.36,NE,52,0.0,0.0,97,0.02,,---,0.34,VWS V14.01,2013-01-30 13:50:00,
2013-01-30 08:55:00,32.5,31.7,29.36,North,355,0.0,0.0,97,0.02,,---,0.34,VWS V14.01,2013-01-30 13:55:00,
2013-01-30 09:00:00,32.5,31.7,29.35,NNE,19,0.0,0.0,97,0.02,,---,0.34,VWS V14.01,2013-01-30 14:00:00,
2013-01-30 09:05:00,32.5,31.7,29.36,NNE,22,0.0,0.0,97,0.02,,---,0.34,VWS V14.01,2013-01-30 14:05:00,
2013-01-30 09:10:00,32.5,31.7,29.36,ENE,67,0.0,0.0,97,0.02,,---,0.34,VWS V14.01,2013-01-30 14:10:00,
2013-01-30 09:15:00,32.5,31.7,29.35,NNE,19,0.0,0.0,97,0.02,,---,0.34,VWS V14.01,2013-01-30 14:15:00,
2013-01-30 09:20:00,32.5,31.7,29.34,NE,38,0.0,0.0,97,0.01,,---,0.34,VWS V14.01,2013-01-30 14:20:00,
2013-01-30 09:25:00,32.7,32.2,29.36,NNE,22,0.0,0.0,98,0.01,,---,0.34,VWS V14.01,2013-01-30 14:25:00,
2013-01-30 09:30:00,32.5,31.7,29.36,North,355,0.0,0.0,97,0.01,,---,0.34,VWS V14.01,2013-01-30 14:30:00,
2013-01-30 09:35:00,32.5,31.7,29.35,NNE,15,0.0,0.0,97,0.01,,---,0.34,VWS V14.01,2013-01-30 14:35:00,
2013-01-30 09:40:00,32.4,31.6,29.35,NNE,18,0.0,0.0,97,0.00,,---,0.34,VWS V14.01,2013-01-30 14:40:00,
2013-01-30 09:45:00,32.4,31.6,29.35,NNE,14,0.0,0.0,97,0.00,,---,0.34,VWS V14.01,2013-01-30 14:45:00,
2013-01-30 09:50:00,32.4,31.6,29.34,NNE,33,0.0,0.0,97,0.00,,---,0.34,VWS V14.01,2013-01-30 14:50:00,
2013-01-30 09:55:00,32.4,31.6,29.34,NNE,22,0.0,0.0,97,0.00,,---,0.34,VWS V14.01,2013-01-30 14:55:00,
2013-01-30 10:00:00,32.4,31.6,29.34,NNE,12,0.0,0.0,97,0.00,,---,0.34,VWS V14.01,2013-01-30 15:00:00,
2013-01-30 10:05:00,32.4,31.6,29.34,NNE,14,0.0,0.0,97,0.00,,---,0.34,VWS V14.01,2013-01-30 15:05:00,
2013-01-30 10:10:00,32.4,31.6,29.35,North,355,0.0,0.0,97,0.00,,---,0.34,VWS V14.01,2013-01-30 15:10:00,
2013-01-30 10:15:00,32.2,31.5,29.35,NNE,13,0.0,0.0,97,0.00,,---,0.34,VWS V14.01,2013-01-30 15:15:00,
2013-01-30 10:20:00,32.4,31.6,29.34,NNE,30,0.0,0.0,97,0.00,,---,0.34,VWS V14.01,2013-01-30 15:20:00,
2013-01-30 10:25:00,32.4,31.6,29.33,NE,36,0.0,0.0,97,0.00,,---,0.34,VWS V14.01,2013-01-30 15:25:00,
2013-01-30 10:30:00,32.4,31.6,29.33,North,355,0.0,0.0,97,0.00,,---,0.34,VWS V14.01,2013-01-30 15:30:00,
2013-01-30 10:35:00,32.4,31.6,29.33,North,360,0.0,0.0,97,0.00,,---,0.34,VWS V14.01,2013-01-30 15:35:00,
2013-01-30 10:40:00,32.4,31.6,29.33,North,355,0.0,0.0,97,0.00,,---,0.34,VWS V14.01,2013-01-30 15:40:00,
2013-01-30 10:45:00,32.4,31.6,29.33,North,5,0.0,0.0,97,0.00,,---,0.34,VWS V14.01,2013-01-30 15:45:00,
2013-01-30 10:50:00,32.4,31.6,29.32,North,5,0.0,0.0,97,0.00,,---,0.34,VWS V14.01,2013-01-30 15:50:00,
2013-01-30 10:55:00,32.4,31.6,29.32,NE,34,0.0,0.0,97,0.00,,---,0.34,VWS V14.01,2013-01-30 15:55:00,
2013-01-30 11:00:00,32.5,31.7,29.32,NNE,14,0.0,0.0,97,0.00,,---,0.34,VWS V14.01,2013-01-30 16:00:00,
2013-01-30 11:05:00,32.4,31.6,29.32,NE,39,0.0,0.0,97,0.01,,---,0.35,VWS V14.01,2013-01-30 16:05:00,
2013-01-30 11:10:00,32.4,31.6,29.32,NNE,13,0.0,0.0,97,0.01,,---,0.35,VWS V14.01,2013-01-30 16:10:00,
2013-01-30 11:16:00,32.5,31.7,29.32,North,355,0.0,0.0,97,0.01,,---,0.35,VWS V14.01,2013-01-30 16:16:00,
2013-01-30 11:21:00,32.5,31.7,29.33,North,355,0.0,0.0,97,0.01,,---,0.35,VWS V14.01,2013-01-30 16:21:00,
2013-01-30 11:26:00,32.5,31.7,29.33,North,11,0.0,0.0,97,0.01,,---,0.35,VWS V14.01,2013-01-30 16:26:00,
2013-01-30 11:31:00,32.4,31.6,29.33,North,5,0.0,0.0,97,0.01,,---,0.35,VWS V14.01,2013-01-30 16:31:00,
2013-01-30 11:36:00,32.4,31.6,29.32,North,5,0.0,0.0,97,0.01,,---,0.35,VWS V14.01,2013-01-30 16:36:00,
2013-01-30 11:41:00,32.5,31.7,29.32,North,355,0.0,0.0,97,0.01,,---,0.35,VWS V14.01,2013-01-30 16:41:00,
2013-01-30 11:46:00,32.5,31.7,29.32,NNE,17,0.0,0.0,97,0.01,,---,0.35,VWS V14.01,2013-01-30 16:46:00,
2013-01-30 11:51:00,32.5,31.7,29.32,North,360,0.0,0.0,97,0.01,,---,0.35,VWS V14.01,2013-01-30 16:51:00,
2013-01-30 11:56:00,32.5,31.7,29.31,North,355,0.0,0.0,97,0.02,,---,0.36,VWS V14.01,2013-01-30 16:56:00,
2013-01-30 12:01:00,32.5,31.7,29.31,NE,36,0.0,0.0,97,0.02,,---,0.36,VWS V14.01,2013-01-30 17:01:00,
2013-01-30 12:06:00,32.5,31.7,29.29,NE,44,0.0,0.0,97,0.02,,---,0.36,VWS V14.01,2013-01-30 17:06:00,
2013-01-30 12:11:00,32.5,31.7,29.28,NE,43,0.0,0.0,97,0.01,,---,0.36,VWS V14.01,2013-01-30 17:11:00,
2013-01-30 12:16:00,32.5,31.7,29.28,NNE,31,0.0,0.0,97,0.01,,---,0.36,VWS V14.01,2013-01-30 17:16:00,
2013-01-30 12:21:00,32.7,31.9,29.28,NNE,33,0.0,0.0,97,0.01,,---,0.36,VWS V14.01,2013-01-30 17:21:00,
2013-01-30 12:26:00,32.7,31.9,29.26,NNE,33,0.0,0.0,97,0.01,,---,0.36,VWS V14.01,2013-01-30 17:26:00,
2013-01-30 12:31:00,32.7,31.9,29.26,NE,36,0.0,0.0,97,0.02,,---,0.37,VWS V14.01,2013-01-30 17:31:00,
2013-01-30 12:36:00,32.7,31.9,29.26,NE,45,0.0,0.0,97,0.02,,---,0.37,VWS V14.01,2013-01-30 17:36:00,
2013-01-30 12:41:00,32.7,31.9,29.26,NNE,28,0.0,0.0,97,0.02,,---,0.37,VWS V14.01,2013-01-30 17:41:00,
2013-01-30 12:46:00,32.7,31.9,29.25,NNE,13,0.0,0.0,97,0.02,,---,0.37,VWS V14.01,2013-01-30 17:46:00,
2013-01-30 12:51:00,32.7,31.9,29.25,North,5,0.0,0.0,97,0.02,,---,0.37,VWS V14.01,2013-01-30 17:51:00,
2013-01-30 12:56:00,32.7,31.9,29.24,North,9,0.0,0.0,97,0.03,,---,0.38,VWS V14.01,2013-01-30 17:56:00,
2013-01-30 13:01:00,32.5,31.7,29.24,NNE,32,0.0,0.0,97,0.02,,---,0.38,VWS V14.01,2013-01-30 18:01:00,
2013-01-30 13:06:00,32.4,31.6,29.23,NNE,13,0.0,0.0,97,0.02,,---,0.38,VWS V14.01,2013-01-30 18:06:00,
2013-01-30 13:11:00,32.4,31.6,29.23,North,5,0.0,0.0,97,0.02,,---,0.38,VWS V14.01,2013-01-30 18:11:00,
2013-01-30 13:16:00,32.5,31.7,29.22,NNE,30,0.0,0.0,97,0.02,,---,0.38,VWS V14.01,2013-01-30 18:16:00,
2013-01-30 13:21:00,32.4,31.6,29.22,NNE,14,0.0,0.0,97,0.02,,---,0.38,VWS V14.01,2013-01-30 18:21:00,
2013-01-30 13:26:00,32.4,31.6,29.22,NNE,15,0.0,0.0,97,0.02,,---,0.38,VWS V14.01,2013-01-30 18:26:00,
2013-01-30 13:31:00,32.4,31.6,29.21,NNE,18,0.0,0.0,97,0.01,,---,0.38,VWS V14.01,2013-01-30 18:31:00,
2013-01-30 13:36:00,32.4,31.6,29.21,North,10,0.0,0.0,97,0.02,,---,0.39,VWS V14.01,2013-01-30 18:36:00,
2013-01-30 13:41:00,32.4,31.6,29.20,NE,36,0.0,0.0,97,0.02,,---,0.39,VWS V14.01,2013-01-30 18:41:00,
2013-01-30 13:46:00,32.4,31.6,29.19,NNE,28,0.0,0.0,97,0.02,,---,0.39,VWS V14.01,2013-01-30 18:46:00,
2013-01-30 13:51:00,32.5,31.7,29.18,North,360,0.0,0.0,97,0.02,,---,0.39,VWS V14.01,2013-01-30 18:51:00,
2013-01-30 13:56:00,32.7,31.9,29.19,NNE,14,0.0,0.0,97,0.02,,---,0.39,VWS V14.01,2013-01-30 18:56:00,
2013-01-30 14:01:00,32.7,31.9,29.18,NNE,16,0.0,0.0,97,0.01,,---,0.39,VWS V14.01,2013-01-30 19:01:00,
2013-01-30 14:06:00,32.7,31.9,29.18,North,9,0.0,0.0,97,0.01,,---,0.39,VWS V14.01,2013-01-30 19:06:00,
2013-01-30 14:11:00,32.5,31.7,29.17,NNE,17,0.0,0.0,97,0.02,,---,0.40,VWS V14.01,2013-01-30 19:11:00,
2013-01-30 14:16:00,32.7,31.9,29.17,NNE,25,0.0,0.0,97,0.02,,---,0.40,VWS V14.01,2013-01-30 19:16:00,
2013-01-30 14:21:00,32.8,32.0,29.16,NNE,25,0.0,0.0,97,0.02,,---,0.40,VWS V14.01,2013-01-30 19:21:00,
2013-01-30 14:26:00,32.9,32.1,29.16,NNE,27,0.0,0.0,97,0.02,,---,0.40,VWS V14.01,2013-01-30 19:26:00,
2013-01-30 14:31:00,32.9,32.1,29.17,NNE,27,0.0,0.0,97,0.02,,---,0.40,VWS V14.01,2013-01-30 19:31:00,
2013-01-30 14:36:00,33.1,32.3,29.15,NNE,27,0.0,0.0,97,0.02,,---,0.40,VWS V14.01,2013-01-30 19:36:00,
2013-01-30 14:41:00,33.1,32.3,29.16,NNE,27,0.0,0.0,97,0.02,,---,0.41,VWS V14.01,2013-01-30 19:41:00,
2013-01-30 14:46:00,33.2,32.4,29.16,NNE,27,0.0,0.0,97,0.02,,---,0.41,VWS V14.01,2013-01-30 19:46:00,
2013-01-30 14:51:00,33.2,32.4,29.16,NNE,27,0.0,0.0,97,0.02,,---,0.41,VWS V14.01,2013-01-30 19:51:00,
2013-01-30 14:56:00,33.1,32.3,29.16,NNE,27,0.0,0.0,97,0.02,,---,0.41,VWS V14.01,2013-01-30 19:56:00,
2013-01-30 15:01:00,32.9,32.1,29.16,NNE,13,0.0,0.0,97,0.02,,---,0.41,VWS V14.01,2013-01-30 20:01:00,
2013-01-30 15:06:00,32.9,32.1,29.16,NNE,13,0.0,0.0,97,0.02,,---,0.41,VWS V14.01,2013-01-30 20:06:00,
2013-01-30 15:11:00,33.1,32.3,29.15,NNE,13,0.0,0.0,97,0.02,,---,0.42,VWS V14.01,2013-01-30 20:11:00,
2013-01-30 15:16:00,33.1,32.3,29.15,NNE,13,0.0,0.0,97,0.02,,---,0.42,VWS V14.01,2013-01-30 20:16:00,
2013-01-30 15:21:00,33.1,32.3,29.16,NNE,13,0.0,0.0,97,0.02,,---,0.42,VWS V14.01,2013-01-30 20:21:00,
2013-01-30 15:26:00,32.9,32.1,29.16,North,5,0.0,0.0,97,0.02,,---,0.42,VWS V14.01,2013-01-30 20:26:00,
2013-01-30 15:31:00,32.8,32.0,29.15,North,5,0.0,0.0,97,0.02,,---,0.42,VWS V14.01,2013-01-30 20:31:00,
2013-01-30 15:36:00,32.8,32.0,29.14,NNE,18,0.0,0.0,97,0.02,,---,0.42,VWS V14.01,2013-01-30 20:36:00,
2013-01-30 15:41:00,32.8,32.0,29.14,NNE,14,0.0,0.0,97,0.02,,---,0.43,VWS V14.01,2013-01-30 20:41:00,
2013-01-30 15:47:00,32.8,32.0,29.13,North,11,0.0,0.0,97,0.02,,---,0.43,VWS V14.01,2013-01-30 20:47:00,
2013-01-30 15:52:00,32.8,32.0,29.13,NNE,33,0.0,0.0,97,0.02,,---,0.43,VWS V14.01,2013-01-30 20:52:00,
2013-01-30 15:57:00,32.7,31.9,29.13,NNE,30,0.0,0.0,97,0.02,,---,0.43,VWS V14.01,2013-01-30 20:57:00,
2013-01-30 16:02:00,32.7,31.9,29.13,NNE,13,0.0,0.0,97,0.02,,---,0.43,VWS V14.01,2013-01-30 21:02:00,
2013-01-30 16:07:00,32.5,31.7,29.14,North,5,0.0,0.0,97,0.02,,---,0.43,VWS V14.01,2013-01-30 21:07:00,
2013-01-30 16:12:00,32.5,31.7,29.15,North,5,0.0,0.0,97,0.02,,---,0.44,VWS V14.01,2013-01-30 21:12:00,
2013-01-30 16:17:00,32.5,31.7,29.16,North,5,0.0,0.0,97,0.02,,---,0.44,VWS V14.01,2013-01-30 21:17:00,
2013-01-30 16:22:00,32.5,31.7,29.16,NNW,339,0.0,0.0,97,0.02,,---,0.44,VWS V14.01,2013-01-30 21:22:00,
2013-01-30 16:27:00,32.5,31.7,29.16,NNW,328,0.0,0.0,97,0.02,,---,0.44,VWS V14.01,2013-01-30 21:27:00,
2013-01-30 16:32:00,32.5,31.7,29.16,North,5,0.0,0.0,97,0.02,,---,0.44,VWS V14.01,2013-01-30 21:32:00,
2013-01-30 16:37:00,32.5,31.7,29.16,NNE,15,0.0,0.0,97,0.02,,---,0.44,VWS V14.01,2013-01-30 21:37:00,
2013-01-30 16:42:00,32.4,31.6,29.15,NNE,15,0.0,0.0,97,0.01,,---,0.44,VWS V14.01,2013-01-30 21:42:00,
2013-01-30 16:47:00,32.4,31.6,29.14,North,360,0.0,0.0,97,0.01,,---,0.44,VWS V14.01,2013-01-30 21:47:00,
2013-01-30 16:52:00,32.2,31.5,29.15,NNE,15,0.0,0.0,97,0.02,,---,0.45,VWS V14.01,2013-01-30 21:52:00,
2013-01-30 16:57:00,31.9,31.1,29.14,NNE,31,0.0,0.0,97,0.02,,---,0.45,VWS V14.01,2013-01-30 21:57:00,
2013-01-30 17:02:00,31.8,31.0,29.13,NNE,27,0.0,0.0,97,0.02,,---,0.45,VWS V14.01,2013-01-30 22:02:00,
2013-01-30 17:07:00,31.5,30.8,29.12,NNW,348,0.0,0.0,97,0.02,,---,0.45,VWS V14.01,2013-01-30 22:07:00,
2013-01-30 17:12:00,31.2,30.5,29.12,NNE,27,0.0,0.0,97,0.01,,---,0.45,VWS V14.01,2013-01-30 22:12:00,
2013-01-30 17:17:00,31.0,30.2,29.12,NNE,22,0.0,0.0,97,0.01,,---,0.45,VWS V14.01,2013-01-30 22:17:00,
2013-01-30 17:22:00,30.9,30.1,29.12,NNE,18,0.0,0.0,97,0.01,,---,0.45,VWS V14.01,2013-01-30 22:22:00,
2013-01-30 17:27:00,30.7,30.0,29.11,NNE,20,0.0,0.0,97,0.01,,---,0.45,VWS V14.01,2013-01-30 22:27:00,
2013-01-30 17:32:00,30.4,29.6,29.12,NNE,12,0.0,0.0,97,0.01,,---,0.45,VWS V14.01,2013-01-30 22:32:00,
2013-01-30 17:37:00,30.3,29.5,29.11,North,360,0.0,0.0,97,0.01,,---,0.45,VWS V14.01,2013-01-30 22:37:00,
2013-01-30 17:42:00,30.1,29.4,29.13,NNE,13,0.0,0.0,97,0.01,,---,0.45,VWS V14.01,2013-01-30 22:42:00,
2013-01-30 17:47:00,30.0,29.2,29.13,NNE,25,0.0,0.0,97,0.01,,---,0.45,VWS V14.01,2013-01-30 22:47:00,
2013-01-30 17:52:00,29.7,29.0,29.12,NE,34,0.0,0.0,97,0.01,,---,0.45,VWS V14.01,2013-01-30 22:52:00,
2013-01-30 17:57:00,29.4,28.7,29.13,North,5,0.0,0.0,97,0.01,,---,0.45,VWS V14.01,2013-01-30 22:57:00,
2013-01-30 18:02:00,29.3,28.6,29.13,NNE,30,0.0,0.0,97,0.00,,---,0.45,VWS V14.01,2013-01-30 23:02:00,
2013-01-30 18:07:00,29.1,28.4,29.13,North,360,0.0,0.0,97,0.00,,---,0.45,VWS V14.01,2013-01-30 23:07:00,
2013-01-30 18:12:00,28.8,28.1,29.13,North,10,0.0,0.0,97,0.00,,---,0.45,VWS V14.01,2013-01-30 23:12:00,
2013-01-30 18:18:00,28.7,28.0,29.13,North,355,0.0,0.0,97,0.00,,---,0.45,VWS V14.01,2013-01-30 23:18:00,
2013-01-30 18:23:00,28.4,27.7,29.13,NNE,13,0.0,0.0,97,0.00,,---,0.45,VWS V14.01,2013-01-30 23:23:00,
2013-01-30 18:28:00,28.2,27.5,29.13,North,355,0.0,0.0,97,0.00,,---,0.45,VWS V14.01,2013-01-30 23:28:00,
2013-01-30 18:33:00,28.2,27.5,29.13,NNE,24,0.0,0.0,97,0.00,,---,0.45,VWS V14.01,2013-01-30 23:33:00,
2013-01-30 18:38:00,28.1,27.4,29.12,NNE,19,0.0,0.0,97,0.00,,---,0.45,VWS V14.01,2013-01-30 23:38:00,
2013-01-30 18:43:00,28.1,27.4,29.13,North,360,0.0,0.0,97,0.00,,---,0.45,VWS V14.01,2013-01-30 23:43:00,
2013-01-30 18:48:00,27.9,27.2,29.13,NNE,22,0.0,0.0,97,0.00,,---,0.45,VWS V14.01,2013-01-30 23:48:00,
2013-01-30 18:53:00,27.8,27.1,29.12,North,5,0.0,0.0,97,0.00,,---,0.45,VWS V14.01,2013-01-30 23:53:00,
2013-01-30 18:58:00,27.6,26.9,29.13,NNE,22,0.0,0.0,97,0.00,,---,0.45,VWS V14.01,2013-01-30 23:58:00,
2013-01-30 19:03:00,27.5,26.8,29.13,NNE,17,0.0,0.0,97,0.00,,---,0.45,VWS V14.01,2013-01-31 00:03:00,
2013-01-30 19:08:00,27.5,26.8,29.14,NNE,15,0.0,0.0,97,0.00,,---,0.45,VWS V14.01,2013-01-31 00:08:00,
2013-01-30 19:13:00,27.5,26.8,29.14,NNW,345,0.0,0.0,97,0.00,,---,0.45,VWS V14.01,2013-01-31 00:13:00,
2013-01-30 19:18:00,27.3,26.6,29.14,North,9,0.0,0.0,97,0.00,,---,0.45,VWS V14.01,2013-01-31 00:18:00,
2013-01-30 19:23:00,27.3,26.6,29.14,North,5,0.0,0.0,97,0.00,,---,0.45,VWS V14.01,2013-01-31 00:23:00,
2013-01-30 19:28:00,27.2,26.5,29.14,North,10,0.0,0.0,97,0.00,,---,0.45,VWS V14.01,2013-01-31 00:28:00,
2013-01-30 19:33:00,27.0,26.3,29.15,North,11,0.0,0.0,97,0.00,,---,0.45,VWS V14.01,2013-01-31 00:33:00,
2013-01-30 19:38:00,26.9,25.9,29.14,NNE,29,0.0,0.0,96,0.00,,---,0.45,VWS V14.01,2013-01-31 00:38:00,
2013-01-30 19:43:00,26.6,25.6,29.15,NNE,28,0.0,0.0,96,0.00,,---,0.45,VWS V14.01,2013-01-31 00:43:00,
2013-01-30 19:48:00,26.4,25.4,29.14,NNE,32,0.0,0.0,96,0.00,,---,0.45,VWS V14.01,2013-01-31 00:48:00,
2013-01-30 19:53:00,26.4,25.4,29.15,NNE,31,0.0,0.0,96,0.00,,---,0.45,VWS V14.01,2013-01-31 00:53:00,
2013-01-30 19:58:00,26.3,25.3,29.15,NE,36,0.0,0.0,96,0.00,,---,0.45,VWS V14.01,2013-01-31 00:58:00,
2013-01-30 20:03:00,26.1,25.1,29.15,North,5,0.0,0.0,96,0.00,,---,0.45,VWS V14.01,2013-01-31 01:03:00,
2013-01-30 20:08:00,26.0,25.0,29.15,North,9,0.0,0.0,96,0.00,,---,0.45,VWS V14.01,2013-01-31 01:08:00,
2013-01-30 20:13:00,26.0,25.0,29.15,NNE,26,0.0,0.0,96,0.00,,---,0.45,VWS V14.01,2013-01-31 01:13:00,
2013-01-30 20:18:00,25.8,24.8,29.15,North,9,0.0,0.0,96,0.00,,---,0.45,VWS V14.01,2013-01-31 01:18:00,
2013-01-30 20:23:00,25.7,24.7,29.15,NNE,30,0.0,0.0,96,0.00,,---,0.45,VWS V14.01,2013-01-31 01:23:00,
2013-01-30 20:28:00,25.6,24.4,29.14,North,360,0.0,0.0,95,0.00,,---,0.45,VWS V14.01,2013-01-31 01:28:00,
2013-01-30 20:33:00,25.4,24.2,29.14,North,9,0.0,0.0,95,0.00,,---,0.45,VWS V14.01,2013-01-31 01:33:00,
2013-01-30 20:38:00,25.4,24.2,29.14,North,9,0.0,0.0,95,0.00,,---,0.45,VWS V14.01,2013-01-31 01:38:00,
2013-01-30 20:43:00,25.4,24.2,29.14,NE,37,0.0,0.0,95,0.00,,---,0.45,VWS V14.01,2013-01-31 01:43:00,
2013-01-30 20:48:00,25.3,24.1,29.14,NNE,13,0.0,0.0,95,0.00,,---,0.45,VWS V14.01,2013-01-31 01:48:00,
2013-01-30 20:53:00,25.3,24.1,29.14,North,5,0.0,0.0,95,0.00,,---,0.45,VWS V14.01,2013-01-31 01:53:00,
2013-01-30 20:58:00,25.0,23.8,29.14,North,10,0.0,0.0,95,0.00,,---,0.45,VWS V14.01,2013-01-31 01:58:00,
2013-01-30 21:03:00,24.7,23.5,29.15,North,5,0.0,0.0,95,0.00,,---,0.45,VWS V14.01,2013-01-31 02:03:00,
2013-01-30 21:08:00,24.5,23.0,29.16,NNE,29,0.0,0.0,94,0.00,,---,0.45,VWS V14.01,2013-01-31 02:08:00,
2013-01-30 21:13:00,24.5,23.0,29.17,NNE,17,0.0,0.0,94,0.00,,---,0.45,VWS V14.01,2013-01-31 02:13:00,
2013-01-30 21:18:00,24.4,22.9,29.17,North,360,0.0,0.0,94,0.00,,---,0.45,VWS V14.01,2013-01-31 02:18:00,
2013-01-30 21:23:00,24.2,22.7,29.18,NE,41,0.0,0.0,94,0.00,,---,0.45,VWS V14.01,2013-01-31 02:23:00,
2013-01-30 21:28:00,24.1,22.6,29.18,NNE,15,0.0,0.0,94,0.00,,---,0.45,VWS V14.01,2013-01-31 02:28:00,
2013-01-30 21:33:00,24.1,22.6,29.18,North,9,0.0,0.0,94,0.00,,---,0.45,VWS V14.01,2013-01-31 02:33:00,
2013-01-30 21:38:00,23.9,22.4,29.18,North,9,0.0,0.0,94,0.00,,---,0.45,VWS V14.01,2013-01-31 02:38:00,
2013-01-30 21:43:00,23.9,22.4,29.19,North,10,0.0,0.0,94,0.00,,---,0.45,VWS V14.01,2013-01-31 02:43:00,
2013-01-30 21:48:00,23.9,22.4,29.19,NNE,30,0.0,0.0,94,0.00,,---,0.45,VWS V14.01,2013-01-31 02:48:00,
2013-01-30 21:53:00,23.9,22.4,29.19,North,355,0.0,0.0,94,0.00,,---,0.45,VWS V14.01,2013-01-31 02:53:00,
2013-01-30 21:58:00,23.8,22.3,29.19,NNE,19,0.0,0.0,94,0.00,,---,0.45,VWS V14.01,2013-01-31 02:58:00,
2013-01-30 22:03:00,23.8,22.3,29.19,NNE,27,0.0,0.0,94,0.00,,---,0.45,VWS V14.01,2013-01-31 03:03:00,
2013-01-30 22:08:00,23.6,21.9,29.19,North,360,0.0,0.0,93,0.00,,---,0.45,VWS V14.01,2013-01-31 03:08:00,
2013-01-30 22:13:00,23.3,21.6,29.19,NNE,26,0.0,0.0,93,0.00,,---,0.45,VWS V14.01,2013-01-31 03:13:00,
2013-01-30 22:18:00,23.2,21.5,29.19,NNE,29,0.0,0.0,93,0.00,,---,0.45,VWS V14.01,2013-01-31 03:18:00,
2013-01-30 22:24:00,22.9,20.9,29.19,North,351,0.0,0.0,92,0.00,,---,0.45,VWS V14.01,2013-01-31 03:24:00,
2013-01-30 22:28:00,22.7,20.7,29.19,North,355,0.0,0.0,92,0.00,,---,0.45,VWS V14.01,2013-01-31 03:28:00,
2013-01-30 22:33:00,22.5,20.5,29.18,NNE,14,0.0,0.0,92,0.00,,---,0.45,VWS V14.01,2013-01-31 03:33:00,
2013-01-30 22:38:00,22.4,20.4,29.18,NNE,24,0.0,0.0,92,0.00,,---,0.45,VWS V14.01,2013-01-31 03:38:00,
2013-01-30 22:43:00,22.1,19.9,29.19,North,360,0.0,0.0,91,0.00,,---,0.45,VWS V14.01,2013-01-31 03:43:00,
2013-01-30 22:49:00,21.6,19.1,29.19,North,360,0.0,0.0,90,0.00,,---,0.45,VWS V14.01,2013-01-31 03:49:00,
2013-01-30 22:54:00,21.3,18.8,29.20,NNW,346,0.0,0.0,90,0.00,,---,0.45,VWS V14.01,2013-01-31 03:54:00,
2013-01-30 22:59:00,21.1,18.6,29.20,North,11,0.0,0.0,90,0.00,,---,0.45,VWS V14.01,2013-01-31 03:59:00,
2013-01-30 23:04:00,20.8,18.3,29.20,North,9,0.0,0.0,90,0.00,,---,0.45,VWS V14.01,2013-01-31 04:04:00,
2013-01-30 23:09:00,20.6,18.1,29.20,North,355,0.0,0.0,90,0.00,,---,0.45,VWS V14.01,2013-01-31 04:09:00,
2013-01-30 23:14:00,20.6,18.4,29.21,North,355,0.0,0.0,91,0.00,,---,0.45,VWS V14.01,2013-01-31 04:14:00,
2013-01-30 23:19:00,20.6,18.4,29.21,NNW,338,0.0,0.0,91,0.00,,---,0.45,VWS V14.01,2013-01-31 04:19:00,
2013-01-30 23:24:00,20.5,18.3,29.21,North,360,0.0,0.0,91,0.00,,---,0.45,VWS V14.01,2013-01-31 04:24:00,
2013-01-30 23:29:00,20.2,17.7,29.22,North,360,0.0,0.0,90,0.00,,---,0.45,VWS V14.01,2013-01-31 04:29:00,
2013-01-30 23:34:00,20.0,17.5,29.22,NNW,347,0.0,0.0,90,0.00,,---,0.45,VWS V14.01,2013-01-31 04:34:00,
2013-01-30 23:39:00,19.7,17.2,29.22,North,5,0.0,0.0,90,0.00,,---,0.45,VWS V14.01,2013-01-31 04:39:00,
2013-01-30 23:44:00,19.5,16.8,29.23,NNW,348,0.0,0.0,89,0.00,,---,0.45,VWS V14.01,2013-01-31 04:44:00,
2013-01-30 23:49:00,19.5,16.8,29.23,NNE,27,0.0,0.0,89,0.00,,---,0.45,VWS V14.01,2013-01-31 04:49:00,
2013-01-30 23:54:00,19.4,16.7,29.23,North,360,0.0,0.0,89,0.00,,---,0.45,VWS V14.01,2013-01-31 04:54:00,
2013-01-30 23:59:00,19.2,16.5,29.24,North,5,0.0,0.0,89,0.00,,---,0.45,VWS V14.01,2013-01-31 04:59:00,